sensor_id;sensor_type;location;lat;lon;timestamp;temperature;humidity
53294;DHT22;39181;53.440;5.644;2023-04-03T00:01:32;2.70;99.90
53294;DHT22;39181;53.440;5.644;2023-04-03T00:03:58;2.70;99.90
53294;DHT22;39181;53.440;5.644;2023-04-03T00:06:24;2.70;99.90
53294;DHT22;39181;53.440;5.644;2023-04-03T00:08:50;2.60;99.90
53294;DHT22;39181;53.440;5.644;2023-04-03T00:11:17;2.60;99.90
53294;DHT22;39181;53.440;5.644;2023-04-03T00:13:43;2.50;99.90
53294;DHT22;39181;53.440;5.644;2023-04-03T00:16:09;2.50;99.90
53294;DHT22;39181;53.440;5.644;2023-04-03T00:18:36;2.50;99.90
53294;DHT22;39181;53.440;5.644;2023-04-03T00:21:02;2.40;99.90
53294;DHT22;39181;53.440;5.644;2023-04-03T00:23:28;2.40;99.90
53294;DHT22;39181;53.440;5.644;2023-04-03T00:25:54;2.40;99.90
53294;DHT22;39181;53.440;5.644;2023-04-03T00:28:20;2.40;99.90
53294;DHT22;39181;53.440;5.644;2023-04-03T00:30:46;2.40;99.90
53294;DHT22;39181;53.440;5.644;2023-04-03T00:33:13;2.40;99.90
53294;DHT22;39181;53.440;5.644;2023-04-03T00:35:39;2.40;99.90
53294;DHT22;39181;53.440;5.644;2023-04-03T00:38:05;2.40;99.90
53294;DHT22;39181;53.440;5.644;2023-04-03T00:40:41;2.40;99.90
53294;DHT22;39181;53.440;5.644;2023-04-03T00:43:13;2.50;99.90
53294;DHT22;39181;53.440;5.644;2023-04-03T00:45:46;2.50;99.90
53294;DHT22;39181;53.440;5.644;2023-04-03T00:48:20;2.80;99.90
53294;DHT22;39181;53.440;5.644;2023-04-03T00:50:47;2.40;99.90
53294;DHT22;39181;53.440;5.644;2023-04-03T00:53:18;2.50;99.90
53294;DHT22;39181;53.440;5.644;2023-04-03T00:55:47;2.40;99.90
53294;DHT22;39181;53.440;5.644;2023-04-03T00:58:14;2.40;99.90
53294;DHT22;39181;53.440;5.644;2023-04-03T01:00:43;2.40;99.90
53294;DHT22;39181;53.440;5.644;2023-04-03T01:03:11;2.30;99.90
53294;DHT22;39181;53.440;5.644;2023-04-03T01:05:36;2.30;99.90
53294;DHT22;39181;53.440;5.644;2023-04-03T01:08:02;2.30;99.90
53294;DHT22;39181;53.440;5.644;2023-04-03T01:10:28;2.30;99.90
53294;DHT22;39181;53.440;5.644;2023-04-03T01:12:53;2.30;99.90
53294;DHT22;39181;53.440;5.644;2023-04-03T01:15:25;2.20;99.90
53294;DHT22;39181;53.440;5.644;2023-04-03T01:17:58;2.30;99.90
53294;DHT22;39181;53.440;5.644;2023-04-03T01:25:43;2.00;99.90
53294;DHT22;39181;53.440;5.644;2023-04-03T01:28:13;1.90;99.90
53294;DHT22;39181;53.440;5.644;2023-04-03T01:31:06;1.80;99.90
53294;DHT22;39181;53.440;5.644;2023-04-03T01:33:33;1.70;99.90
53294;DHT22;39181;53.440;5.644;2023-04-03T01:35:59;1.70;99.90
53294;DHT22;39181;53.440;5.644;2023-04-03T01:38:25;1.70;99.90
53294;DHT22;39181;53.440;5.644;2023-04-03T01:40:51;1.60;99.90
53294;DHT22;39181;53.440;5.644;2023-04-03T01:43:17;1.60;99.90
53294;DHT22;39181;53.440;5.644;2023-04-03T01:45:42;1.60;99.90
53294;DHT22;39181;53.440;5.644;2023-04-03T01:48:08;1.60;99.90
53294;DHT22;39181;53.440;5.644;2023-04-03T01:50:33;1.50;99.90
53294;DHT22;39181;53.440;5.644;2023-04-03T01:52:59;1.50;99.90
53294;DHT22;39181;53.440;5.644;2023-04-03T01:55:25;1.50;99.90
53294;DHT22;39181;53.440;5.644;2023-04-03T01:57:50;1.50;99.90
53294;DHT22;39181;53.440;5.644;2023-04-03T02:00:16;1.50;99.90
53294;DHT22;39181;53.440;5.644;2023-04-03T02:02:42;1.50;99.90
53294;DHT22;39181;53.440;5.644;2023-04-03T02:05:08;1.50;99.90
53294;DHT22;39181;53.440;5.644;2023-04-03T02:07:33;1.50;99.90
53294;DHT22;39181;53.440;5.644;2023-04-03T02:09:59;1.40;99.90
53294;DHT22;39181;53.440;5.644;2023-04-03T02:12:25;1.40;99.90
53294;DHT22;39181;53.440;5.644;2023-04-03T02:14:50;1.30;99.90
53294;DHT22;39181;53.440;5.644;2023-04-03T02:17:16;1.30;99.90
53294;DHT22;39181;53.440;5.644;2023-04-03T02:19:41;1.30;99.90
53294;DHT22;39181;53.440;5.644;2023-04-03T02:22:07;1.30;99.90
53294;DHT22;39181;53.440;5.644;2023-04-03T02:24:32;1.30;99.90
53294;DHT22;39181;53.440;5.644;2023-04-03T02:26:58;1.20;99.90
53294;DHT22;39181;53.440;5.644;2023-04-03T02:29:24;1.20;99.90
53294;DHT22;39181;53.440;5.644;2023-04-03T02:31:50;1.10;99.90
53294;DHT22;39181;53.440;5.644;2023-04-03T02:34:16;1.10;99.90
53294;DHT22;39181;53.440;5.644;2023-04-03T02:36:42;1.10;99.90
53294;DHT22;39181;53.440;5.644;2023-04-03T02:39:08;1.10;99.90
53294;DHT22;39181;53.440;5.644;2023-04-03T02:41:34;1.00;99.90
53294;DHT22;39181;53.440;5.644;2023-04-03T02:44:03;1.00;99.90
53294;DHT22;39181;53.440;5.644;2023-04-03T02:46:30;1.00;99.90
53294;DHT22;39181;53.440;5.644;2023-04-03T02:48:55;1.00;99.90
53294;DHT22;39181;53.440;5.644;2023-04-03T02:51:21;1.00;99.90
53294;DHT22;39181;53.440;5.644;2023-04-03T02:53:48;0.90;99.90
53294;DHT22;39181;53.440;5.644;2023-04-03T02:56:14;0.90;99.90
53294;DHT22;39181;53.440;5.644;2023-04-03T02:58:40;0.90;99.90
53294;DHT22;39181;53.440;5.644;2023-04-03T03:01:06;0.90;99.90
53294;DHT22;39181;53.440;5.644;2023-04-03T03:03:31;0.90;99.90
53294;DHT22;39181;53.440;5.644;2023-04-03T03:06:07;0.90;99.90
53294;DHT22;39181;53.440;5.644;2023-04-03T03:08:33;0.90;99.90
53294;DHT22;39181;53.440;5.644;2023-04-03T03:10:59;0.90;99.90
53294;DHT22;39181;53.440;5.644;2023-04-03T03:13:25;0.80;99.90
53294;DHT22;39181;53.440;5.644;2023-04-03T03:15:51;0.80;99.90
53294;DHT22;39181;53.440;5.644;2023-04-03T03:18:17;0.80;99.90
53294;DHT22;39181;53.440;5.644;2023-04-03T03:20:43;0.80;99.90
53294;DHT22;39181;53.440;5.644;2023-04-03T03:23:08;0.80;99.90
53294;DHT22;39181;53.440;5.644;2023-04-03T03:25:40;1.20;99.90
53294;DHT22;39181;53.440;5.644;2023-04-03T03:28:06;0.80;99.90
53294;DHT22;39181;53.440;5.644;2023-04-03T03:30:32;0.80;99.90
53294;DHT22;39181;53.440;5.644;2023-04-03T03:32:58;0.80;99.90
53294;DHT22;39181;53.440;5.644;2023-04-03T03:35:24;0.80;99.90
53294;DHT22;39181;53.440;5.644;2023-04-03T03:37:49;0.80;99.90
53294;DHT22;39181;53.440;5.644;2023-04-03T03:40:15;0.90;99.90
53294;DHT22;39181;53.440;5.644;2023-04-03T03:42:41;0.80;99.90
53294;DHT22;39181;53.440;5.644;2023-04-03T03:45:07;0.80;99.90
53294;DHT22;39181;53.440;5.644;2023-04-03T03:47:32;0.80;99.90
53294;DHT22;39181;53.440;5.644;2023-04-03T03:49:58;0.80;99.90
53294;DHT22;39181;53.440;5.644;2023-04-03T03:52:24;0.80;99.90
53294;DHT22;39181;53.440;5.644;2023-04-03T03:54:50;0.80;99.90
53294;DHT22;39181;53.440;5.644;2023-04-03T03:57:15;0.80;99.90
53294;DHT22;39181;53.440;5.644;2023-04-03T03:59:41;0.80;99.90
53294;DHT22;39181;53.440;5.644;2023-04-03T04:02:07;0.80;99.90
53294;DHT22;39181;53.440;5.644;2023-04-03T04:04:33;0.80;99.90
53294;DHT22;39181;53.440;5.644;2023-04-03T04:06:59;0.70;99.90
53294;DHT22;39181;53.440;5.644;2023-04-03T04:09:26;0.70;99.90
53294;DHT22;39181;53.440;5.644;2023-04-03T04:11:52;0.60;99.90
53294;DHT22;39181;53.440;5.644;2023-04-03T04:14:18;0.60;99.90
53294;DHT22;39181;53.440;5.644;2023-04-03T04:16:46;0.60;99.90
53294;DHT22;39181;53.440;5.644;2023-04-03T04:19:11;0.60;99.90
53294;DHT22;39181;53.440;5.644;2023-04-03T04:21:37;0.60;99.90
53294;DHT22;39181;53.440;5.644;2023-04-03T04:24:03;0.50;99.90
53294;DHT22;39181;53.440;5.644;2023-04-03T04:26:28;0.50;99.90
53294;DHT22;39181;53.440;5.644;2023-04-03T04:28:54;0.40;99.90
53294;DHT22;39181;53.440;5.644;2023-04-03T04:31:19;0.40;99.90
53294;DHT22;39181;53.440;5.644;2023-04-03T04:33:45;0.40;99.90
53294;DHT22;39181;53.440;5.644;2023-04-03T04:36:11;0.40;99.90
53294;DHT22;39181;53.440;5.644;2023-04-03T04:38:36;0.40;99.90
53294;DHT22;39181;53.440;5.644;2023-04-03T04:41:02;0.30;99.90
53294;DHT22;39181;53.440;5.644;2023-04-03T04:43:27;0.40;99.90
53294;DHT22;39181;53.440;5.644;2023-04-03T04:46:08;0.30;99.90
53294;DHT22;39181;53.440;5.644;2023-04-03T04:48:34;0.30;99.90
53294;DHT22;39181;53.440;5.644;2023-04-03T04:51:01;0.30;99.90
53294;DHT22;39181;53.440;5.644;2023-04-03T04:53:26;0.30;99.90
53294;DHT22;39181;53.440;5.644;2023-04-03T04:55:52;0.30;99.90
53294;DHT22;39181;53.440;5.644;2023-04-03T04:58:18;0.20;99.90
53294;DHT22;39181;53.440;5.644;2023-04-03T05:00:44;0.20;99.90
53294;DHT22;39181;53.440;5.644;2023-04-03T05:03:10;0.30;99.90
53294;DHT22;39181;53.440;5.644;2023-04-03T05:05:36;0.40;99.90
53294;DHT22;39181;53.440;5.644;2023-04-03T05:08:02;0.40;99.90
53294;DHT22;39181;53.440;5.644;2023-04-03T05:10:28;0.50;99.90
53294;DHT22;39181;53.440;5.644;2023-04-03T05:12:54;0.60;99.90
53294;DHT22;39181;53.440;5.644;2023-04-03T05:15:19;0.70;99.90
53294;DHT22;39181;53.440;5.644;2023-04-03T05:17:45;0.80;99.90
53294;DHT22;39181;53.440;5.644;2023-04-03T05:20:11;0.80;99.90
53294;DHT22;39181;53.440;5.644;2023-04-03T05:22:37;0.90;99.90
53294;DHT22;39181;53.440;5.644;2023-04-03T05:25:03;1.00;99.90
53294;DHT22;39181;53.440;5.644;2023-04-03T05:27:28;1.00;99.90
53294;DHT22;39181;53.440;5.644;2023-04-03T05:29:54;1.10;99.90
53294;DHT22;39181;53.440;5.644;2023-04-03T05:32:21;1.10;99.90
53294;DHT22;39181;53.440;5.644;2023-04-03T05:34:47;1.10;99.90
53294;DHT22;39181;53.440;5.644;2023-04-03T05:37:12;1.10;99.90
53294;DHT22;39181;53.440;5.644;2023-04-03T05:39:38;1.10;99.90
53294;DHT22;39181;53.440;5.644;2023-04-03T05:42:06;1.10;99.90
53294;DHT22;39181;53.440;5.644;2023-04-03T05:44:32;1.20;99.90
53294;DHT22;39181;53.440;5.644;2023-04-03T05:46:58;1.20;99.90
53294;DHT22;39181;53.440;5.644;2023-04-03T05:49:23;1.30;99.90
53294;DHT22;39181;53.440;5.644;2023-04-03T05:51:49;1.30;99.90
53294;DHT22;39181;53.440;5.644;2023-04-03T05:54:27;1.30;99.90
53294;DHT22;39181;53.440;5.644;2023-04-03T05:56:53;1.30;99.90
53294;DHT22;39181;53.440;5.644;2023-04-03T05:59:19;1.30;99.90
53294;DHT22;39181;53.440;5.644;2023-04-03T06:01:46;1.30;99.90
53294;DHT22;39181;53.440;5.644;2023-04-03T06:04:12;1.40;99.90
53294;DHT22;39181;53.440;5.644;2023-04-03T06:06:54;1.50;99.90
53294;DHT22;39181;53.440;5.644;2023-04-03T06:09:24;1.50;99.90
53294;DHT22;39181;53.440;5.644;2023-04-03T06:11:50;1.60;99.90
53294;DHT22;39181;53.440;5.644;2023-04-03T06:14:17;1.60;99.90
53294;DHT22;39181;53.440;5.644;2023-04-03T06:16:43;1.70;99.90
53294;DHT22;39181;53.440;5.644;2023-04-03T06:19:09;1.70;99.90
53294;DHT22;39181;53.440;5.644;2023-04-03T06:21:35;1.80;99.90
53294;DHT22;39181;53.440;5.644;2023-04-03T06:24:02;1.80;99.90
53294;DHT22;39181;53.440;5.644;2023-04-03T06:26:28;1.80;99.90
53294;DHT22;39181;53.440;5.644;2023-04-03T06:28:54;1.90;99.90
53294;DHT22;39181;53.440;5.644;2023-04-03T06:31:19;2.00;99.90
53294;DHT22;39181;53.440;5.644;2023-04-03T06:33:45;2.00;99.90
53294;DHT22;39181;53.440;5.644;2023-04-03T06:36:11;2.00;99.90
53294;DHT22;39181;53.440;5.644;2023-04-03T06:38:37;2.10;99.90
53294;DHT22;39181;53.440;5.644;2023-04-03T06:41:03;2.20;99.90
53294;DHT22;39181;53.440;5.644;2023-04-03T06:43:29;2.60;99.90
53294;DHT22;39181;53.440;5.644;2023-04-03T06:45:56;2.30;99.90
53294;DHT22;39181;53.440;5.644;2023-04-03T06:48:22;2.40;99.90
53294;DHT22;39181;53.440;5.644;2023-04-03T06:50:48;2.40;99.90
53294;DHT22;39181;53.440;5.644;2023-04-03T06:53:14;2.50;99.90
53294;DHT22;39181;53.440;5.644;2023-04-03T06:55:40;2.50;99.90
53294;DHT22;39181;53.440;5.644;2023-04-03T06:58:06;2.60;99.90
53294;DHT22;39181;53.440;5.644;2023-04-03T07:00:32;2.60;99.90
53294;DHT22;39181;53.440;5.644;2023-04-03T07:02:59;2.60;99.90
53294;DHT22;39181;53.440;5.644;2023-04-03T07:05:25;2.70;99.90
53294;DHT22;39181;53.440;5.644;2023-04-03T07:07:51;2.80;99.90
53294;DHT22;39181;53.440;5.644;2023-04-03T07:10:17;2.80;99.90
53294;DHT22;39181;53.440;5.644;2023-04-03T07:12:43;2.90;99.90
53294;DHT22;39181;53.440;5.644;2023-04-03T07:15:09;2.90;99.90
53294;DHT22;39181;53.440;5.644;2023-04-03T07:17:34;2.90;99.90
53294;DHT22;39181;53.440;5.644;2023-04-03T07:20:01;3.00;99.90
53294;DHT22;39181;53.440;5.644;2023-04-03T07:22:27;3.00;99.90
53294;DHT22;39181;53.440;5.644;2023-04-03T07:24:52;3.00;99.90
53294;DHT22;39181;53.440;5.644;2023-04-03T07:27:18;3.10;99.90
53294;DHT22;39181;53.440;5.644;2023-04-03T07:29:44;3.10;99.90
53294;DHT22;39181;53.440;5.644;2023-04-03T07:32:10;3.20;99.90
53294;DHT22;39181;53.440;5.644;2023-04-03T07:34:36;3.20;99.90
53294;DHT22;39181;53.440;5.644;2023-04-03T07:37:02;3.30;99.90
53294;DHT22;39181;53.440;5.644;2023-04-03T07:39:28;3.40;99.90
53294;DHT22;39181;53.440;5.644;2023-04-03T07:41:54;3.40;99.90
53294;DHT22;39181;53.440;5.644;2023-04-03T07:44:23;3.40;99.90
53294;DHT22;39181;53.440;5.644;2023-04-03T07:46:48;3.50;99.90
53294;DHT22;39181;53.440;5.644;2023-04-03T07:49:16;3.50;99.90
53294;DHT22;39181;53.440;5.644;2023-04-03T07:51:43;3.60;99.90
53294;DHT22;39181;53.440;5.644;2023-04-03T07:54:09;3.50;99.90
53294;DHT22;39181;53.440;5.644;2023-04-03T07:56:34;3.60;99.90
53294;DHT22;39181;53.440;5.644;2023-04-03T07:59:00;3.80;99.90
53294;DHT22;39181;53.440;5.644;2023-04-03T08:01:26;3.90;99.90
53294;DHT22;39181;53.440;5.644;2023-04-03T08:03:51;4.00;99.90
53294;DHT22;39181;53.440;5.644;2023-04-03T08:06:17;4.10;99.90
53294;DHT22;39181;53.440;5.644;2023-04-03T08:08:43;4.10;99.90
53294;DHT22;39181;53.440;5.644;2023-04-03T08:11:10;4.20;99.90
53294;DHT22;39181;53.440;5.644;2023-04-03T08:13:36;4.40;99.90
53294;DHT22;39181;53.440;5.644;2023-04-03T08:16:14;4.50;99.90
53294;DHT22;39181;53.440;5.644;2023-04-03T08:18:41;4.50;99.90
53294;DHT22;39181;53.440;5.644;2023-04-03T08:21:08;4.60;99.90
53294;DHT22;39181;53.440;5.644;2023-04-03T08:23:34;4.80;99.90
53294;DHT22;39181;53.440;5.644;2023-04-03T08:26:14;4.90;99.90
53294;DHT22;39181;53.440;5.644;2023-04-03T08:28:40;4.90;99.90
53294;DHT22;39181;53.440;5.644;2023-04-03T08:31:11;5.00;99.90
53294;DHT22;39181;53.440;5.644;2023-04-03T08:33:38;5.20;99.90
53294;DHT22;39181;53.440;5.644;2023-04-03T08:36:05;5.30;99.90
53294;DHT22;39181;53.440;5.644;2023-04-03T08:38:31;5.30;99.90
53294;DHT22;39181;53.440;5.644;2023-04-03T08:43:55;5.70;99.90
53294;DHT22;39181;53.440;5.644;2023-04-03T08:46:26;5.70;99.90
53294;DHT22;39181;53.440;5.644;2023-04-03T08:48:58;5.90;99.90
53294;DHT22;39181;53.440;5.644;2023-04-03T08:51:24;6.00;99.90
53294;DHT22;39181;53.440;5.644;2023-04-03T08:53:59;6.10;99.90
53294;DHT22;39181;53.440;5.644;2023-04-03T08:56:27;6.00;99.90
53294;DHT22;39181;53.440;5.644;2023-04-03T08:59:06;6.20;99.90
53294;DHT22;39181;53.440;5.644;2023-04-03T09:01:38;6.30;99.90
53294;DHT22;39181;53.440;5.644;2023-04-03T09:04:14;6.40;99.90
53294;DHT22;39181;53.440;5.644;2023-04-03T09:06:43;6.50;99.90
53294;DHT22;39181;53.440;5.644;2023-04-03T09:09:31;6.20;99.90
53294;DHT22;39181;53.440;5.644;2023-04-03T09:12:19;6.60;99.90
53294;DHT22;39181;53.440;5.644;2023-04-03T09:23:15;7.00;99.90
53294;DHT22;39181;53.440;5.644;2023-04-03T09:25:43;7.10;99.90
53294;DHT22;39181;53.440;5.644;2023-04-03T09:28:09;7.30;99.90
53294;DHT22;39181;53.440;5.644;2023-04-03T09:30:36;7.20;99.90
53294;DHT22;39181;53.440;5.644;2023-04-03T09:33:03;7.10;99.90
53294;DHT22;39181;53.440;5.644;2023-04-03T09:35:34;7.10;99.90
53294;DHT22;39181;53.440;5.644;2023-04-03T09:38:13;7.30;99.90
53294;DHT22;39181;53.440;5.644;2023-04-03T09:40:43;7.40;99.90
53294;DHT22;39181;53.440;5.644;2023-04-03T09:43:51;7.50;99.90
53294;DHT22;39181;53.440;5.644;2023-04-03T09:46:31;7.50;99.90
53294;DHT22;39181;53.440;5.644;2023-04-03T09:49:02;7.60;99.90
53294;DHT22;39181;53.440;5.644;2023-04-03T09:51:28;7.70;99.90
53294;DHT22;39181;53.440;5.644;2023-04-03T09:53:55;7.80;99.90
53294;DHT22;39181;53.440;5.644;2023-04-03T09:56:28;7.80;99.90
53294;DHT22;39181;53.440;5.644;2023-04-03T10:01:35;8.00;99.90
53294;DHT22;39181;53.440;5.644;2023-04-03T10:04:17;8.00;99.90
53294;DHT22;39181;53.440;5.644;2023-04-03T10:06:48;8.00;99.90
53294;DHT22;39181;53.440;5.644;2023-04-03T10:12:11;8.10;99.90
53294;DHT22;39181;53.440;5.644;2023-04-03T10:17:35;8.20;99.90
53294;DHT22;39181;53.440;5.644;2023-04-03T10:26:28;7.80;99.90
53294;DHT22;39181;53.440;5.644;2023-04-03T10:28:31;7.90;99.90
53294;DHT22;39181;53.440;5.644;2023-04-03T10:36:34;8.10;99.90
53294;DHT22;39181;53.440;5.644;2023-04-03T10:39:38;8.10;99.90
53294;DHT22;39181;53.440;5.644;2023-04-03T10:47:48;8.50;99.90
53294;DHT22;39181;53.440;5.644;2023-04-03T11:00:55;8.80;99.90
53294;DHT22;39181;53.440;5.644;2023-04-03T11:03:44;9.00;99.90
53294;DHT22;39181;53.440;5.644;2023-04-03T11:06:14;9.10;99.90
53294;DHT22;39181;53.440;5.644;2023-04-03T11:09:01;9.00;99.90
53294;DHT22;39181;53.440;5.644;2023-04-03T11:11:34;9.00;99.90
53294;DHT22;39181;53.440;5.644;2023-04-03T11:16:30;9.10;99.90
53294;DHT22;39181;53.440;5.644;2023-04-03T11:19:20;9.00;99.90
53294;DHT22;39181;53.440;5.644;2023-04-03T11:22:00;8.90;99.90
53294;DHT22;39181;53.440;5.644;2023-04-03T11:24:32;9.00;99.90
53294;DHT22;39181;53.440;5.644;2023-04-03T11:27:00;9.10;99.90
53294;DHT22;39181;53.440;5.644;2023-04-03T11:29:35;9.10;99.90
53294;DHT22;39181;53.440;5.644;2023-04-03T11:34:57;9.10;99.00
53294;DHT22;39181;53.440;5.644;2023-04-03T11:37:44;9.10;99.90
53294;DHT22;39181;53.440;5.644;2023-04-03T11:40:30;9.30;99.90
53294;DHT22;39181;53.440;5.644;2023-04-03T11:50:44;8.90;99.90
53294;DHT22;39181;53.440;5.644;2023-04-03T11:55:45;9.10;99.90
53294;DHT22;39181;53.440;5.644;2023-04-03T12:00:50;9.00;99.90
53294;DHT22;39181;53.440;5.644;2023-04-03T12:05:48;8.90;99.90
53294;DHT22;39181;53.440;5.644;2023-04-03T12:08:27;9.00;99.90
53294;DHT22;39181;53.440;5.644;2023-04-03T12:16:27;9.30;99.90
53294;DHT22;39181;53.440;5.644;2023-04-03T12:46:23;9.10;99.90
53294;DHT22;39181;53.440;5.644;2023-04-03T12:48:52;9.00;99.90
53294;DHT22;39181;53.440;5.644;2023-04-03T12:51:40;8.90;99.90
53294;DHT22;39181;53.440;5.644;2023-04-03T12:54:22;8.90;99.90
53294;DHT22;39181;53.440;5.644;2023-04-03T12:56:49;9.00;99.90
53294;DHT22;39181;53.440;5.644;2023-04-03T12:59:19;8.90;99.90
53294;DHT22;39181;53.440;5.644;2023-04-03T13:01:54;9.00;99.90
53294;DHT22;39181;53.440;5.644;2023-04-03T13:04:20;8.70;99.90
53294;DHT22;39181;53.440;5.644;2023-04-03T13:06:45;8.70;99.90
53294;DHT22;39181;53.440;5.644;2023-04-03T13:09:29;8.80;99.90
53294;DHT22;39181;53.440;5.644;2023-04-03T13:12:09;8.60;99.90
53294;DHT22;39181;53.440;5.644;2023-04-03T13:14:37;8.60;99.90
53294;DHT22;39181;53.440;5.644;2023-04-03T13:19:37;8.50;99.90
53294;DHT22;39181;53.440;5.644;2023-04-03T13:22:06;8.50;99.90
53294;DHT22;39181;53.440;5.644;2023-04-03T13:24:36;8.50;99.90
53294;DHT22;39181;53.440;5.644;2023-04-03T13:27:03;8.30;99.90
53294;DHT22;39181;53.440;5.644;2023-04-03T13:29:39;8.50;99.90
53294;DHT22;39181;53.440;5.644;2023-04-03T13:32:06;8.50;99.90
53294;DHT22;39181;53.440;5.644;2023-04-03T13:34:42;8.50;99.90
53294;DHT22;39181;53.440;5.644;2023-04-03T13:37:22;8.40;99.90
53294;DHT22;39181;53.440;5.644;2023-04-03T13:40:03;8.40;99.90
53294;DHT22;39181;53.440;5.644;2023-04-03T13:42:31;8.50;99.90
53294;DHT22;39181;53.440;5.644;2023-04-03T13:45:27;8.40;99.90
53294;DHT22;39181;53.440;5.644;2023-04-03T13:48:09;8.30;99.90
53294;DHT22;39181;53.440;5.644;2023-04-03T13:50:57;8.30;99.90
53294;DHT22;39181;53.440;5.644;2023-04-03T13:53:24;8.20;99.90
53294;DHT22;39181;53.440;5.644;2023-04-03T13:56:29;8.20;99.90
53294;DHT22;39181;53.440;5.644;2023-04-03T13:59:02;8.10;99.90
53294;DHT22;39181;53.440;5.644;2023-04-03T14:01:47;8.10;99.90
53294;DHT22;39181;53.440;5.644;2023-04-03T14:04:22;8.00;99.90
53294;DHT22;39181;53.440;5.644;2023-04-03T14:06:49;8.00;99.90
53294;DHT22;39181;53.440;5.644;2023-04-03T14:09:17;7.90;99.90
53294;DHT22;39181;53.440;5.644;2023-04-03T14:11:43;8.00;99.90
53294;DHT22;39181;53.440;5.644;2023-04-03T14:14:21;7.80;99.90
53294;DHT22;39181;53.440;5.644;2023-04-03T14:16:51;7.90;99.90
53294;DHT22;39181;53.440;5.644;2023-04-03T14:19:24;7.80;99.90
53294;DHT22;39181;53.440;5.644;2023-04-03T14:21:51;7.70;99.90
53294;DHT22;39181;53.440;5.644;2023-04-03T14:24:18;7.70;99.90
53294;DHT22;39181;53.440;5.644;2023-04-03T14:26:45;7.60;99.90
53294;DHT22;39181;53.440;5.644;2023-04-03T14:29:12;7.60;99.90
53294;DHT22;39181;53.440;5.644;2023-04-03T14:31:39;7.60;99.90
53294;DHT22;39181;53.440;5.644;2023-04-03T14:34:06;7.50;99.90
53294;DHT22;39181;53.440;5.644;2023-04-03T14:36:32;7.50;99.90
53294;DHT22;39181;53.440;5.644;2023-04-03T14:38:59;7.50;99.90
53294;DHT22;39181;53.440;5.644;2023-04-03T14:41:27;7.50;99.90
53294;DHT22;39181;53.440;5.644;2023-04-03T14:43:53;7.40;99.90
53294;DHT22;39181;53.440;5.644;2023-04-03T14:46:26;7.50;99.90
53294;DHT22;39181;53.440;5.644;2023-04-03T14:48:53;7.40;99.90
53294;DHT22;39181;53.440;5.644;2023-04-03T14:51:20;7.40;99.90
53294;DHT22;39181;53.440;5.644;2023-04-03T14:53:46;7.40;99.90
53294;DHT22;39181;53.440;5.644;2023-04-03T14:56:21;7.40;99.90
53294;DHT22;39181;53.440;5.644;2023-04-03T14:58:49;7.30;99.90
53294;DHT22;39181;53.440;5.644;2023-04-03T15:01:17;7.40;99.90
53294;DHT22;39181;53.440;5.644;2023-04-03T15:03:43;7.30;99.90
53294;DHT22;39181;53.440;5.644;2023-04-03T15:06:11;7.30;99.90
53294;DHT22;39181;53.440;5.644;2023-04-03T15:08:38;7.30;99.90
53294;DHT22;39181;53.440;5.644;2023-04-03T15:11:03;7.30;99.90
53294;DHT22;39181;53.440;5.644;2023-04-03T15:13:29;7.20;99.90
53294;DHT22;39181;53.440;5.644;2023-04-03T15:15:55;7.20;99.90
53294;DHT22;39181;53.440;5.644;2023-04-03T15:18:27;7.20;99.90
53294;DHT22;39181;53.440;5.644;2023-04-03T15:20:56;7.00;99.90
53294;DHT22;39181;53.440;5.644;2023-04-03T15:23:22;7.10;99.90
53294;DHT22;39181;53.440;5.644;2023-04-03T15:25:52;7.10;99.90
53294;DHT22;39181;53.440;5.644;2023-04-03T15:28:31;7.00;99.90
53294;DHT22;39181;53.440;5.644;2023-04-03T15:30:58;7.00;99.90
53294;DHT22;39181;53.440;5.644;2023-04-03T15:33:23;7.00;99.90
53294;DHT22;39181;53.440;5.644;2023-04-03T15:35:49;6.90;99.90
53294;DHT22;39181;53.440;5.644;2023-04-03T15:38:15;7.00;99.90
53294;DHT22;39181;53.440;5.644;2023-04-03T15:40:41;7.00;99.90
53294;DHT22;39181;53.440;5.644;2023-04-03T15:43:08;7.00;99.90
53294;DHT22;39181;53.440;5.644;2023-04-03T15:45:35;6.90;99.90
53294;DHT22;39181;53.440;5.644;2023-04-03T15:48:02;6.70;99.90
53294;DHT22;39181;53.440;5.644;2023-04-03T15:50:28;6.70;99.90
53294;DHT22;39181;53.440;5.644;2023-04-03T15:52:54;6.70;99.90
53294;DHT22;39181;53.440;5.644;2023-04-03T15:55:27;6.80;99.90
53294;DHT22;39181;53.440;5.644;2023-04-03T15:57:53;6.90;99.90
53294;DHT22;39181;53.440;5.644;2023-04-03T16:00:20;6.90;99.90
53294;DHT22;39181;53.440;5.644;2023-04-03T16:02:46;6.70;99.90
53294;DHT22;39181;53.440;5.644;2023-04-03T16:05:13;6.70;99.90
53294;DHT22;39181;53.440;5.644;2023-04-03T16:07:40;6.90;99.90
53294;DHT22;39181;53.440;5.644;2023-04-03T16:10:10;6.90;99.90
53294;DHT22;39181;53.440;5.644;2023-04-03T16:12:39;6.80;99.90
53294;DHT22;39181;53.440;5.644;2023-04-03T16:15:05;6.80;99.90
53294;DHT22;39181;53.440;5.644;2023-04-03T16:17:32;6.90;99.90
53294;DHT22;39181;53.440;5.644;2023-04-03T16:19:58;6.80;99.90
53294;DHT22;39181;53.440;5.644;2023-04-03T16:22:26;6.80;99.90
53294;DHT22;39181;53.440;5.644;2023-04-03T16:24:52;6.70;99.90
53294;DHT22;39181;53.440;5.644;2023-04-03T16:27:18;6.60;99.90
53294;DHT22;39181;53.440;5.644;2023-04-03T16:29:44;6.50;99.90
53294;DHT22;39181;53.440;5.644;2023-04-03T16:32:09;6.50;99.90
53294;DHT22;39181;53.440;5.644;2023-04-03T16:34:38;6.50;99.90
53294;DHT22;39181;53.440;5.644;2023-04-03T16:37:03;6.60;99.90
53294;DHT22;39181;53.440;5.644;2023-04-03T16:39:29;6.60;99.90
53294;DHT22;39181;53.440;5.644;2023-04-03T16:41:55;6.60;99.90
53294;DHT22;39181;53.440;5.644;2023-04-03T16:44:20;6.50;99.90
53294;DHT22;39181;53.440;5.644;2023-04-03T16:46:46;6.50;99.90
53294;DHT22;39181;53.440;5.644;2023-04-03T16:49:12;6.50;99.90
53294;DHT22;39181;53.440;5.644;2023-04-03T16:51:37;6.40;99.90
53294;DHT22;39181;53.440;5.644;2023-04-03T16:54:03;6.30;99.90
53294;DHT22;39181;53.440;5.644;2023-04-03T16:56:29;6.30;99.90
53294;DHT22;39181;53.440;5.644;2023-04-03T16:58:54;6.30;99.90
53294;DHT22;39181;53.440;5.644;2023-04-03T17:01:21;6.30;99.90
53294;DHT22;39181;53.440;5.644;2023-04-03T17:03:47;6.10;99.90
53294;DHT22;39181;53.440;5.644;2023-04-03T17:06:18;6.00;99.90
53294;DHT22;39181;53.440;5.644;2023-04-03T17:08:45;6.00;99.90
53294;DHT22;39181;53.440;5.644;2023-04-03T17:11:11;5.90;99.90
53294;DHT22;39181;53.440;5.644;2023-04-03T17:13:37;5.90;99.90
53294;DHT22;39181;53.440;5.644;2023-04-03T17:16:04;5.90;99.90
53294;DHT22;39181;53.440;5.644;2023-04-03T17:18:31;6.00;99.90
53294;DHT22;39181;53.440;5.644;2023-04-03T17:20:58;5.90;99.90
53294;DHT22;39181;53.440;5.644;2023-04-03T17:23:24;5.90;99.90
53294;DHT22;39181;53.440;5.644;2023-04-03T17:25:51;5.90;99.90
53294;DHT22;39181;53.440;5.644;2023-04-03T17:28:17;5.80;99.90
53294;DHT22;39181;53.440;5.644;2023-04-03T17:30:42;5.70;99.90
53294;DHT22;39181;53.440;5.644;2023-04-03T17:33:08;5.70;99.90
53294;DHT22;39181;53.440;5.644;2023-04-03T17:35:33;5.70;99.90
53294;DHT22;39181;53.440;5.644;2023-04-03T17:37:59;5.50;99.90
53294;DHT22;39181;53.440;5.644;2023-04-03T17:40:25;5.50;99.90
53294;DHT22;39181;53.440;5.644;2023-04-03T17:42:52;5.50;99.90